sensor_id;sensor_type;location;lat;lon;timestamp;pressure;altitude;pressure_sealevel;temperature;humidity
77171;BME280;66144;50.020;14.422;2023-02-22T00:01:16;98934.34;;;9.38;67.56
77171;BME280;66144;50.020;14.422;2023-02-22T00:04:00;98932.75;;;9.37;67.80
77171;BME280;66144;50.020;14.422;2023-02-22T00:06:26;98929.81;;;9.33;67.51
77171;BME280;66144;50.020;14.422;2023-02-22T00:08:51;98935.63;;;9.24;68.08
77171;BME280;66144;50.020;14.422;2023-02-22T00:11:17;98925.88;;;9.31;67.96
77171;BME280;66144;50.020;14.422;2023-02-22T00:13:44;98935.03;;;9.33;68.27
77171;BME280;66144;50.020;14.422;2023-02-22T00:16:19;98937.41;;;9.35;68.48
77171;BME280;66144;50.020;14.422;2023-02-22T00:18:44;98931.97;;;9.37;69.14
77171;BME280;66144;50.020;14.422;2023-02-22T00:21:11;98936.94;;;9.38;68.92
77171;BME280;66144;50.020;14.422;2023-02-22T00:23:40;98935.13;;;9.39;68.94
77171;BME280;66144;50.020;14.422;2023-02-22T00:26:11;98934.56;;;9.37;69.10
77171;BME280;66144;50.020;14.422;2023-02-22T00:28:37;98940.13;;;9.40;68.71
77171;BME280;66144;50.020;14.422;2023-02-22T00:31:04;98931.28;;;9.41;68.72
77171;BME280;66144;50.020;14.422;2023-02-22T00:33:31;98934.91;;;9.40;68.73
77171;BME280;66144;50.020;14.422;2023-02-22T00:35:57;98933.78;;;9.36;68.97
77171;BME280;66144;50.020;14.422;2023-02-22T00:38:24;98934.56;;;9.37;68.63
77171;BME280;66144;50.020;14.422;2023-02-22T00:40:50;98935.38;;;9.37;68.67
77171;BME280;66144;50.020;14.422;2023-02-22T00:43:15;98935.59;;;9.35;69.01
77171;BME280;66144;50.020;14.422;2023-02-22T00:45:41;98932.19;;;9.35;69.42
77171;BME280;66144;50.020;14.422;2023-02-22T00:48:07;98933.59;;;9.26;68.79
77171;BME280;66144;50.020;14.422;2023-02-22T00:50:33;98928.47;;;9.31;69.57
77171;BME280;66144;50.020;14.422;2023-02-22T00:53:01;98933.13;;;9.29;69.04
77171;BME280;66144;50.020;14.422;2023-02-22T00:55:33;98929.38;;;9.25;68.87
77171;BME280;66144;50.020;14.422;2023-02-22T00:58:00;98924.91;;;9.20;68.08
77171;BME280;66144;50.020;14.422;2023-02-22T01:00:32;98924.75;;;9.27;68.80
77171;BME280;66144;50.020;14.422;2023-02-22T01:02:58;98921.91;;;9.28;68.83
77171;BME280;66144;50.020;14.422;2023-02-22T01:05:27;98925.31;;;9.29;68.42
77171;BME280;66144;50.020;14.422;2023-02-22T01:07:53;98919.84;;;9.30;68.92
77171;BME280;66144;50.020;14.422;2023-02-22T01:10:25;98927.44;;;9.32;68.91
77171;BME280;66144;50.020;14.422;2023-02-22T01:12:51;98925.88;;;9.31;68.81
77171;BME280;66144;50.020;14.422;2023-02-22T01:15:21;98923.25;;;9.31;69.83
77171;BME280;66144;50.020;14.422;2023-02-22T01:17:48;98920.19;;;9.34;69.32
77171;BME280;66144;50.020;14.422;2023-02-22T01:20:14;98921.22;;;9.33;69.13
77171;BME280;66144;50.020;14.422;2023-02-22T01:22:45;98922.22;;;9.32;69.13
77171;BME280;66144;50.020;14.422;2023-02-22T01:25:15;98922.22;;;9.32;69.00
77171;BME280;66144;50.020;14.422;2023-02-22T01:27:40;98918.03;;;9.31;68.52
77171;BME280;66144;50.020;14.422;2023-02-22T01:30:07;98914.66;;;9.30;69.30
77171;BME280;66144;50.020;14.422;2023-02-22T01:32:37;98908.09;;;9.28;69.46
77171;BME280;66144;50.020;14.422;2023-02-22T01:35:06;98915.09;;;9.27;69.52
77171;BME280;66144;50.020;14.422;2023-02-22T01:37:35;98921.09;;;9.28;70.03
77171;BME280;66144;50.020;14.422;2023-02-22T01:40:02;98908.53;;;9.25;68.90
77171;BME280;66144;50.020;14.422;2023-02-22T01:42:28;98909.91;;;9.27;68.42
77171;BME280;66144;50.020;14.422;2023-02-22T01:45:28;98909.91;;;9.27;68.95
77171;BME280;66144;50.020;14.422;2023-02-22T01:48:06;98911.72;;;9.27;68.84
77171;BME280;66144;50.020;14.422;2023-02-22T01:50:36;98907.22;;;9.22;69.35
77171;BME280;66144;50.020;14.422;2023-02-22T01:53:03;98903.59;;;9.23;69.53
77171;BME280;66144;50.020;14.422;2023-02-22T01:55:30;98904.34;;;9.24;69.84
77171;BME280;66144;50.020;14.422;2023-02-22T01:57:57;98902.53;;;9.24;70.00
77171;BME280;66144;50.020;14.422;2023-02-22T02:00:23;98906.72;;;9.25;69.25
77171;BME280;66144;50.020;14.422;2023-02-22T02:02:55;98904.84;;;9.21;70.56
77171;BME280;66144;50.020;14.422;2023-02-22T02:05:28;98899.06;;;9.19;69.20
77171;BME280;66144;50.020;14.422;2023-02-22T02:07:56;98897.25;;;9.19;69.12
77171;BME280;66144;50.020;14.422;2023-02-22T02:10:22;98902.47;;;9.19;69.38
77171;BME280;66144;50.020;14.422;2023-02-22T02:12:49;98898.97;;;9.14;69.34
77171;BME280;66144;50.020;14.422;2023-02-22T02:17:42;98891.72;;;9.16;69.13
77171;BME280;66144;50.020;14.422;2023-02-22T02:20:40;98893.31;;;9.17;68.58
77171;BME280;66144;50.020;14.422;2023-02-22T02:23:37;98888.09;;;9.17;69.25
77171;BME280;66144;50.020;14.422;2023-02-22T02:26:26;98896.69;;;9.17;69.29
77171;BME280;66144;50.020;14.422;2023-02-22T02:40:01;98892.19;;;9.13;69.31
77171;BME280;66144;50.020;14.422;2023-02-22T02:42:39;98886.31;;;9.06;69.84
77171;BME280;66144;50.020;14.422;2023-02-22T02:45:11;98880.63;;;9.09;70.06
77171;BME280;66144;50.020;14.422;2023-02-22T02:47:41;98876.44;;;9.08;70.54
77171;BME280;66144;50.020;14.422;2023-02-22T02:50:15;98875.66;;;9.07;69.83
77171;BME280;66144;50.020;14.422;2023-02-22T02:52:44;98874.47;;;8.98;69.42
77171;BME280;66144;50.020;14.422;2023-02-22T02:55:11;98876.44;;;9.08;69.40
77171;BME280;66144;50.020;14.422;2023-02-22T02:57:37;98877.47;;;9.07;69.61
77171;BME280;66144;50.020;14.422;2023-02-22T03:00:06;98873.84;;;9.08;70.54
77171;BME280;66144;50.020;14.422;2023-02-22T03:03:06;98874.41;;;9.10;70.54
77171;BME280;66144;50.020;14.422;2023-02-22T03:06:09;98863.41;;;9.08;70.06
77171;BME280;66144;50.020;14.422;2023-02-22T03:14:44;98860.25;;;9.06;70.52
77171;BME280;66144;50.020;14.422;2023-02-22T03:20:00;98862.06;;;9.05;70.04
77171;BME280;66144;50.020;14.422;2023-02-22T03:22:54;98861.44;;;8.98;70.36
77171;BME280;66144;50.020;14.422;2023-02-22T03:25:39;98855.44;;;8.97;70.36
77171;BME280;66144;50.020;14.422;2023-02-22T03:28:09;98860.19;;;9.00;70.30
77171;BME280;66144;50.020;14.422;2023-02-22T03:30:52;98855.53;;;9.03;70.67
77171;BME280;66144;50.020;14.422;2023-02-22T03:33:44;98854.97;;;9.00;70.69
77171;BME280;66144;50.020;14.422;2023-02-22T03:36:18;98859.63;;;8.98;70.52
77171;BME280;66144;50.020;14.422;2023-02-22T03:38:46;98863.25;;;8.97;71.21
77171;BME280;66144;50.020;14.422;2023-02-22T03:41:15;98856.22;;;8.98;70.96
77171;BME280;66144;50.020;14.422;2023-02-22T03:43:46;98847.06;;;8.95;70.49
77171;BME280;66144;50.020;14.422;2023-02-22T03:46:13;98844.75;;;8.82;71.25
77171;BME280;66144;50.020;14.422;2023-02-22T03:48:49;98847.41;;;8.87;70.74
77171;BME280;66144;50.020;14.422;2023-02-22T03:51:18;98851.38;;;8.90;71.06
77171;BME280;66144;50.020;14.422;2023-02-22T03:53:44;98857.38;;;8.90;71.49
77171;BME280;66144;50.020;14.422;2023-02-22T03:56:16;98856.81;;;8.88;71.58
77171;BME280;66144;50.020;14.422;2023-02-22T03:58:45;98856.25;;;8.86;70.81
77171;BME280;66144;50.020;14.422;2023-02-22T04:01:15;98857.38;;;8.90;70.71
77171;BME280;66144;50.020;14.422;2023-02-22T04:03:41;98847.41;;;8.87;70.65
77171;BME280;66144;50.020;14.422;2023-02-22T04:06:07;98852.16;;;8.90;70.76
77171;BME280;66144;50.020;14.422;2023-02-22T04:08:32;98847.97;;;8.89;70.29
77171;BME280;66144;50.020;14.422;2023-02-22T04:10:58;98852.41;;;8.89;70.82
77171;BME280;66144;50.020;14.422;2023-02-22T04:13:23;98849.47;;;8.85;70.49
77171;BME280;66144;50.020;14.422;2023-02-22T04:15:49;98846.31;;;8.83;71.33
77171;BME280;66144;50.020;14.422;2023-02-22T04:18:14;98844.53;;;8.72;71.16
77171;BME280;66144;50.020;14.422;2023-02-22T04:20:39;98844.41;;;8.79;71.09
77171;BME280;66144;50.020;14.422;2023-02-22T04:23:05;98843.84;;;8.77;70.63
77171;BME280;66144;50.020;14.422;2023-02-22T04:25:30;98845.19;;;8.79;70.87
77171;BME280;66144;50.020;14.422;2023-02-22T04:27:56;98843.94;;;8.82;71.08
77171;BME280;66144;50.020;14.422;2023-02-22T04:30:21;98841.13;;;8.83;70.94
77171;BME280;66144;50.020;14.422;2023-02-22T04:32:47;98845.31;;;8.84;71.18
77171;BME280;66144;50.020;14.422;2023-02-22T04:35:13;98838.28;;;8.85;71.03
77171;BME280;66144;50.020;14.422;2023-02-22T04:37:39;98844.75;;;8.82;71.60
77171;BME280;66144;50.020;14.422;2023-02-22T04:40:05;98841.91;;;8.84;70.91
77171;BME280;66144;50.020;14.422;2023-02-22T04:42:35;98841.13;;;8.83;71.11
77171;BME280;66144;50.020;14.422;2023-02-22T04:45:01;98843.72;;;8.83;70.98
77171;BME280;66144;50.020;14.422;2023-02-22T04:47:27;98845.19;;;8.79;71.29
77171;BME280;66144;50.020;14.422;2023-02-22T04:49:53;98840.44;;;8.76;70.87
77171;BME280;66144;50.020;14.422;2023-02-22T04:52:18;98842.03;;;8.77;70.77
77171;BME280;66144;50.020;14.422;2023-02-22T04:54:44;98838.63;;;8.77;71.18
77171;BME280;66144;50.020;14.422;2023-02-22T04:57:09;98842.50;;;8.74;70.70
77171;BME280;66144;50.020;14.422;2023-02-22T04:59:34;98837.63;;;8.78;70.51
77171;BME280;66144;50.020;14.422;2023-02-22T05:02:00;98830.03;;;8.76;71.08
77171;BME280;66144;50.020;14.422;2023-02-22T05:04:25;98834.78;;;8.79;71.34
77171;BME280;66144;50.020;14.422;2023-02-22T05:06:51;98830.03;;;8.76;71.51
77171;BME280;66144;50.020;14.422;2023-02-22T05:09:16;98825.53;;;8.72;70.54
77171;BME280;66144;50.020;14.422;2023-02-22T05:11:41;98825.63;;;8.77;70.74
77171;BME280;66144;50.020;14.422;2023-02-22T05:14:07;98822.00;;;8.78;71.24
77171;BME280;66144;50.020;14.422;2023-02-22T05:16:32;98834.78;;;8.79;70.39
77171;BME280;66144;50.020;14.422;2023-02-22T05:18:57;98832.97;;;8.80;70.25
77171;BME280;66144;50.020;14.422;2023-02-22T05:21:23;98824.38;;;8.79;70.77
77171;BME280;66144;50.020;14.422;2023-02-22T05:23:48;98822.31;;;8.81;70.79
77171;BME280;66144;50.020;14.422;2023-02-22T05:26:14;98829.56;;;8.79;70.60
77171;BME280;66144;50.020;14.422;2023-02-22T05:28:39;98821.53;;;8.81;71.93
77171;BME280;66144;50.020;14.422;2023-02-22T05:31:05;98822.09;;;8.83;71.51
77171;BME280;66144;50.020;14.422;2023-02-22T05:33:31;98830.94;;;8.82;71.07
77171;BME280;66144;50.020;14.422;2023-02-22T05:35:56;98839.53;;;8.82;71.79
77171;BME280;66144;50.020;14.422;2023-02-22T05:38:22;98833.31;;;8.83;70.91
77171;BME280;66144;50.020;14.422;2023-02-22T05:40:47;98836.69;;;8.84;70.77
77171;BME280;66144;50.020;14.422;2023-02-22T05:43:13;98830.94;;;8.82;71.37
77171;BME280;66144;50.020;14.422;2023-02-22T05:45:40;98834.31;;;8.82;71.36
77171;BME280;66144;50.020;14.422;2023-02-22T05:48:06;98832.75;;;8.81;71.61
77171;BME280;66144;50.020;14.422;2023-02-22T05:50:32;98831.16;;;8.80;71.39
77171;BME280;66144;50.020;14.422;2023-02-22T05:52:57;98837.63;;;8.78;72.12
77171;BME280;66144;50.020;14.422;2023-02-22T05:55:23;98825.84;;;8.75;72.10
77171;BME280;66144;50.020;14.422;2023-02-22T05:57:50;98837.50;;;8.73;72.27
77171;BME280;66144;50.020;14.422;2023-02-22T06:00:27;98836.97;;;8.71;72.06
77171;BME280;66144;50.020;14.422;2023-02-22T06:03:00;98839.88;;;8.74;71.80
77171;BME280;66144;50.020;14.422;2023-02-22T06:05:27;98839.44;;;8.77;71.19
77171;BME280;66144;50.020;14.422;2023-02-22T06:07:52;98841.69;;;8.74;71.72
77171;BME280;66144;50.020;14.422;2023-02-22T06:10:18;98836.84;;;8.77;72.41
77171;BME280;66144;50.020;14.422;2023-02-22T06:12:44;98844.53;;;8.72;71.83
77171;BME280;66144;50.020;14.422;2023-02-22T06:15:10;98842.03;;;8.77;72.09
77171;BME280;66144;50.020;14.422;2023-02-22T06:17:35;98846.00;;;8.80;71.76
77171;BME280;66144;50.020;14.422;2023-02-22T06:20:01;98841.81;;;8.79;72.28
77171;BME280;66144;50.020;14.422;2023-02-22T06:22:33;98846.00;;;8.80;71.75
77171;BME280;66144;50.020;14.422;2023-02-22T06:24:58;98842.03;;;8.77;72.01
77171;BME280;66144;50.020;14.422;2023-02-22T06:27:23;98846.56;;;8.70;72.07
77171;BME280;66144;50.020;14.422;2023-02-22T06:29:49;98850.88;;;8.76;71.84
77171;BME280;66144;50.020;14.422;2023-02-22T06:32:14;98848.03;;;8.78;72.23
77171;BME280;66144;50.020;14.422;2023-02-22T06:34:39;98844.97;;;8.81;72.14
77171;BME280;66144;50.020;14.422;2023-02-22T06:37:06;98848.94;;;8.83;71.45
77171;BME280;66144;50.020;14.422;2023-02-22T06:39:31;98844.75;;;8.82;72.08
77171;BME280;66144;50.020;14.422;2023-02-22T06:41:58;98848.38;;;8.81;72.57
77171;BME280;66144;50.020;14.422;2023-02-22T06:44:23;98850.03;;;8.87;72.43
77171;BME280;66144;50.020;14.422;2023-02-22T06:46:49;98853.75;;;8.91;71.96
77171;BME280;66144;50.020;14.422;2023-02-22T06:49:15;98855.34;;;8.92;71.52
77171;BME280;66144;50.020;14.422;2023-02-22T06:51:41;98859.06;;;8.96;71.75
77171;BME280;66144;50.020;14.422;2023-02-22T06:54:07;98854.41;;;8.98;71.70
77171;BME280;66144;50.020;14.422;2023-02-22T06:56:32;98856.00;;;8.99;71.60
77171;BME280;66144;50.020;14.422;2023-02-22T06:58:58;98862.56;;;9.02;70.98
77171;BME280;66144;50.020;14.422;2023-02-22T07:01:23;98865.94;;;9.03;71.43
77171;BME280;66144;50.020;14.422;2023-02-22T07:03:48;98868.06;;;9.06;71.56
77171;BME280;66144;50.020;14.422;2023-02-22T07:06:14;98867.16;;;9.12;71.25
77171;BME280;66144;50.020;14.422;2023-02-22T07:08:39;98864.06;;;9.15;71.13
77171;BME280;66144;50.020;14.422;2023-02-22T07:11:05;98861.81;;;9.18;71.03
77171;BME280;66144;50.020;14.422;2023-02-22T07:13:30;98865.25;;;9.24;70.58
77171;BME280;66144;50.020;14.422;2023-02-22T07:15:56;98872.06;;;9.25;70.86
77171;BME280;66144;50.020;14.422;2023-02-22T07:18:21;98861.72;;;9.30;71.46
77171;BME280;66144;50.020;14.422;2023-02-22T07:20:48;98865.00;;;9.37;71.22
77171;BME280;66144;50.020;14.422;2023-02-22T07:23:14;98863.00;;;9.44;71.18
77171;BME280;66144;50.020;14.422;2023-02-22T07:25:40;98860.94;;;9.46;70.46
77171;BME280;66144;50.020;14.422;2023-02-22T07:28:06;98864.22;;;9.53;70.85
77171;BME280;66144;50.020;14.422;2023-02-22T07:30:32;98867.69;;;9.59;70.34
77171;BME280;66144;50.020;14.422;2023-02-22T07:33:04;98870.13;;;9.65;69.95
77171;BME280;66144;50.020;14.422;2023-02-22T07:35:33;98871.56;;;9.73;69.54
77171;BME280;66144;50.020;14.422;2023-02-22T07:38:01;98870.28;;;9.76;69.53
77171;BME280;66144;50.020;14.422;2023-02-22T07:40:27;98868.00;;;9.79;68.88
77171;BME280;66144;50.020;14.422;2023-02-22T07:42:56;98870.75;;;9.89;69.08
77171;BME280;66144;50.020;14.422;2023-02-22T07:45:25;98869.03;;;9.95;68.97
77171;BME280;66144;50.020;14.422;2023-02-22T07:47:51;98866.22;;;10.01;69.00
77171;BME280;66144;50.020;14.422;2023-02-22T07:50:17;98872.88;;;10.09;68.77
77171;BME280;66144;50.020;14.422;2023-02-22T07:52:47;98859.91;;;10.14;68.05
77171;BME280;66144;50.020;14.422;2023-02-22T07:55:17;98863.13;;;10.21;68.37
77171;BME280;66144;50.020;14.422;2023-02-22T07:57:47;98860.91;;;10.30;67.93
77171;BME280;66144;50.020;14.422;2023-02-22T08:00:16;98861.53;;;10.37;67.75
77171;BME280;66144;50.020;14.422;2023-02-22T08:02:45;98858.72;;;10.44;67.66
77171;BME280;66144;50.020;14.422;2023-02-22T08:05:10;98857.53;;;10.51;67.51
77171;BME280;66144;50.020;14.422;2023-02-22T08:07:37;98864.91;;;10.59;67.11
77171;BME280;66144;50.020;14.422;2023-02-22T08:10:04;98847.50;;;10.65;67.13
77171;BME280;66144;50.020;14.422;2023-02-22T08:12:32;98860.88;;;10.68;66.81
77171;BME280;66144;50.020;14.422;2023-02-22T08:14:57;98858.06;;;10.75;66.67
77171;BME280;66144;50.020;14.422;2023-02-22T08:17:23;98855.50;;;10.80;66.59
77171;BME280;66144;50.020;14.422;2023-02-22T08:19:48;98857.94;;;10.87;66.38
77171;BME280;66144;50.020;14.422;2023-02-22T08:22:13;98847.53;;;10.92;66.70
77171;BME280;66144;50.020;14.422;2023-02-22T08:24:39;98854.66;;;10.96;66.72
77171;BME280;66144;50.020;14.422;2023-02-22T08:27:05;98862.28;;;11.03;66.36
77171;BME280;66144;50.020;14.422;2023-02-22T08:29:30;98859.97;;;11.06;66.05
77171;BME280;66144;50.020;14.422;2023-02-22T08:31:58;98865.25;;;11.12;65.65
77171;BME280;66144;50.020;14.422;2023-02-22T08:34:24;98862.66;;;11.17;65.48
77171;BME280;66144;50.020;14.422;2023-02-22T08:36:50;98860.34;;;11.20;65.30
77171;BME280;66144;50.020;14.422;2023-02-22T08:39:15;98855.97;;;11.26;64.88
77171;BME280;66144;50.020;14.422;2023-02-22T08:41:41;98855.97;;;11.26;65.07
77171;BME280;66144;50.020;14.422;2023-02-22T08:44:06;98851.81;;;11.30;65.30
77171;BME280;66144;50.020;14.422;2023-02-22T08:46:32;98860.78;;;11.39;65.35
77171;BME280;66144;50.020;14.422;2023-02-22T08:48:57;98859.53;;;11.47;64.96
77171;BME280;66144;50.020;14.422;2023-02-22T08:51:23;98863.00;;;11.52;64.74
77171;BME280;66144;50.020;14.422;2023-02-22T08:53:49;98860.94;;;11.54;65.15
77171;BME280;66144;50.020;14.422;2023-02-22T08:56:14;98859.91;;;11.60;65.34
77171;BME280;66144;50.020;14.422;2023-02-22T08:58:39;98864.16;;;11.66;64.55
77171;BME280;66144;50.020;14.422;2023-02-22T09:01:05;98862.06;;;11.68;63.61
77171;BME280;66144;50.020;14.422;2023-02-22T09:03:30;98862.13;;;11.73;63.47
77171;BME280;66144;50.020;14.422;2023-02-22T09:05:55;98860.00;;;11.75;63.67
77171;BME280;66144;50.020;14.422;2023-02-22T09:08:23;98867.19;;;11.85;63.47
77171;BME280;66144;50.020;14.422;2023-02-22T09:10:49;98855.72;;;11.91;63.67
77171;BME280;66144;50.020;14.422;2023-02-22T09:13:15;98863.06;;;11.94;63.88
77171;BME280;66144;50.020;14.422;2023-02-22T09:15:41;98861.00;;;12.01;63.42
77171;BME280;66144;50.020;14.422;2023-02-22T09:18:09;98852.41;;;12.06;62.85
77171;BME280;66144;50.020;14.422;2023-02-22T09:20:35;98851.41;;;12.12;62.83
77171;BME280;66144;50.020;14.422;2023-02-22T09:23:02;98852.44;;;12.16;62.15
77171;BME280;66144;50.020;14.422;2023-02-22T09:25:28;98858.75;;;12.20;61.39
77171;BME280;66144;50.020;14.422;2023-02-22T09:27:55;98854.34;;;12.26;62.02
77171;BME280;66144;50.020;14.422;2023-02-22T09:30:26;98856.69;;;12.22;61.32
77171;BME280;66144;50.020;14.422;2023-02-22T09:32:53;98857.22;;;12.24;61.03
77171;BME280;66144;50.020;14.422;2023-02-22T09:35:19;98857.69;;;12.16;60.87
77171;BME280;66144;50.020;14.422;2023-02-22T09:37:51;98856.97;;;12.26;60.91
77171;BME280;66144;50.020;14.422;2023-02-22T09:40:17;98846.78;;;12.29;61.06
77171;BME280;66144;50.020;14.422;2023-02-22T09:45:28;98840.47;;;12.25;59.77
77171;BME280;66144;50.020;14.422;2023-02-22T09:47:58;98849.41;;;12.29;60.08
77171;BME280;66144;50.020;14.422;2023-02-22T09:50:28;98843.63;;;12.32;59.65
77171;BME280;66144;50.020;14.422;2023-02-22T09:52:58;98836.81;;;12.26;59.26
77171;BME280;66144;50.020;14.422;2023-02-22T09:55:35;98842.06;;;12.31;59.86
77171;BME280;66144;50.020;14.422;2023-02-22T09:58:06;98842.91;;;12.42;59.72
77171;BME280;66144;50.020;14.422;2023-02-22T10:00:36;98838.44;;;12.42;59.87
77171;BME280;66144;50.020;14.422;2023-02-22T10:03:24;98842.13;;;12.47;59.19
77171;BME280;66144;50.020;14.422;2023-02-22T10:06:02;98835.31;;;12.45;58.62
77171;BME280;66144;50.020;14.422;2023-02-22T10:08:31;98836.38;;;12.55;58.81
77171;BME280;66144;50.020;14.422;2023-02-22T10:11:34;98837.22;;;12.60;57.90
77171;BME280;66144;50.020;14.422;2023-02-22T10:14:44;98828.06;;;12.68;58.16
77171;BME280;66144;50.020;14.422;2023-02-22T10:20:20;98822.84;;;12.78;57.02
77171;BME280;66144;50.020;14.422;2023-02-22T10:25:44;98820.19;;;12.73;56.99
77171;BME280;66144;50.020;14.422;2023-02-22T10:33:33;98812.63;;;12.92;56.35
77171;BME280;66144;50.020;14.422;2023-02-22T10:36:01;98813.72;;;13.01;57.04
77171;BME280;66144;50.020;14.422;2023-02-22T10:38:34;98806.13;;;13.14;56.89
77171;BME280;66144;50.020;14.422;2023-02-22T10:43:25;98812.13;;;13.00;55.86
77171;BME280;66144;50.020;14.422;2023-02-22T10:45:53;98808.72;;;13.09;56.01
77171;BME280;66144;50.020;14.422;2023-02-22T10:48:21;98806.16;;;13.25;56.27
77171;BME280;66144;50.020;14.422;2023-02-22T10:50:49;98805.13;;;13.21;55.88
77171;BME280;66144;50.020;14.422;2023-02-22T10:53:17;98802.22;;;13.32;55.91
77171;BME280;66144;50.020;14.422;2023-02-22T10:59:02;98798.28;;;13.55;56.26
77171;BME280;66144;50.020;14.422;2023-02-22T11:04:10;98792.50;;;13.53;54.04
77171;BME280;66144;50.020;14.422;2023-02-22T11:06:38;98791.97;;;13.61;54.37
77171;BME280;66144;50.020;14.422;2023-02-22T11:11:32;98790.13;;;13.72;54.04
77171;BME280;66144;50.020;14.422;2023-02-22T11:13:58;98781.44;;;13.76;54.56
77171;BME280;66144;50.020;14.422;2023-02-22T11:21:56;98773.53;;;13.92;54.11
77171;BME280;66144;50.020;14.422;2023-02-22T11:24:24;98773.81;;;13.85;53.62
77171;BME280;66144;50.020;14.422;2023-02-22T11:26:57;98771.47;;;13.73;53.61
77171;BME280;66144;50.020;14.422;2023-02-22T11:29:31;98771.94;;;14.01;53.85
77171;BME280;66144;50.020;14.422;2023-02-22T11:32:01;98765.09;;;14.00;53.82
77171;BME280;66144;50.020;14.422;2023-02-22T11:34:30;98764.31;;;13.99;52.96
77171;BME280;66144;50.020;14.422;2023-02-22T11:40:15;98764.06;;;14.01;53.03
77171;BME280;66144;50.020;14.422;2023-02-22T11:43:12;98760.66;;;14.00;52.66
77171;BME280;66144;50.020;14.422;2023-02-22T11:45:37;98760.66;;;14.00;52.35
77171;BME280;66144;50.020;14.422;2023-02-22T11:48:05;98752.94;;;14.19;52.85
77171;BME280;66144;50.020;14.422;2023-02-22T11:53:24;98744.34;;;14.03;51.82
77171;BME280;66144;50.020;14.422;2023-02-22T11:56:14;98748.03;;;13.97;51.92
77171;BME280;66144;50.020;14.422;2023-02-22T11:58:50;98741.97;;;14.07;51.49
77171;BME280;66144;50.020;14.422;2023-02-22T12:01:23;98740.91;;;14.08;51.72
77171;BME280;66144;50.020;14.422;2023-02-22T12:09:17;98735.91;;;14.06;52.43
77171;BME280;66144;50.020;14.422;2023-02-22T12:20:26;98723.28;;;14.63;51.15
77171;BME280;66144;50.020;14.422;2023-02-22T12:26:08;98721.13;;;14.75;51.29
77171;BME280;66144;50.020;14.422;2023-02-22T12:28:41;98711.72;;;14.64;50.69
77171;BME280;66144;50.020;14.422;2023-02-22T12:31:20;98718.25;;;14.71;50.34
77171;BME280;66144;50.020;14.422;2023-02-22T12:33:52;98720.25;;;14.84;51.13
77171;BME280;66144;50.020;14.422;2023-02-22T12:36:24;98716.63;;;14.80;50.43
77171;BME280;66144;50.020;14.422;2023-02-22T12:39:00;98717.63;;;14.84;49.92
77171;BME280;66144;50.020;14.422;2023-02-22T12:41:36;98708.13;;;14.89;51.62
77171;BME280;66144;50.020;14.422;2023-02-22T12:44:08;98711.91;;;14.77;50.58
77171;BME280;66144;50.020;14.422;2023-02-22T12:46:43;98713.75;;;14.77;50.91
77171;BME280;66144;50.020;14.422;2023-02-22T12:49:38;98709.78;;;14.79;51.51
77171;BME280;66144;50.020;14.422;2023-02-22T12:55:25;98707.75;;;14.71;51.29
77171;BME280;66144;50.020;14.422;2023-02-22T13:00:45;98706.72;;;14.67;51.12
77171;BME280;66144;50.020;14.422;2023-02-22T13:06:20;98701.03;;;14.55;51.52
77171;BME280;66144;50.020;14.422;2023-02-22T13:11:55;98702.06;;;14.54;51.82
77171;BME280;66144;50.020;14.422;2023-02-22T13:14:43;98693.13;;;14.55;51.90
77171;BME280;66144;50.020;14.422;2023-02-22T13:25:34;98695.31;;;14.43;52.66
77171;BME280;66144;50.020;14.422;2023-02-22T13:34:10;98697.25;;;14.22;51.51
77171;BME280;66144;50.020;14.422;2023-02-22T13:39:57;98692.22;;;14.26;52.08
77171;BME280;66144;50.020;14.422;2023-02-22T13:42:42;98690.97;;;14.18;52.07
77171;BME280;66144;50.020;14.422;2023-02-22T13:51:09;98688.38;;;14.08;52.50
77171;BME280;66144;50.020;14.422;2023-02-22T13:53:50;98693.88;;;14.11;52.24
77171;BME280;66144;50.020;14.422;2023-02-22T13:56:19;98695.19;;;14.14;51.95
77171;BME280;66144;50.020;14.422;2023-02-22T13:58:54;98693.84;;;14.22;52.13
77171;BME280;66144;50.020;14.422;2023-02-22T14:04:18;98691.16;;;14.27;52.53
77171;BME280;66144;50.020;14.422;2023-02-22T14:06:45;98687.56;;;14.17;52.24
77171;BME280;66144;50.020;14.422;2023-02-22T14:12:01;98687.81;;;14.21;52.46
77171;BME280;66144;50.020;14.422;2023-02-22T14:14:27;98687.22;;;14.24;52.43
77171;BME280;66144;50.020;14.422;2023-02-22T14:17:23;98689.41;;;14.12;51.90
77171;BME280;66144;50.020;14.422;2023-02-22T14:20:20;98684.94;;;14.12;51.77
77171;BME280;66144;50.020;14.422;2023-02-22T14:22:49;98689.38;;;14.17;52.40
77171;BME280;66144;50.020;14.422;2023-02-22T14:25:34;98680.47;;;14.13;52.39
77171;BME280;66144;50.020;14.422;2023-02-22T14:28:02;98688.97;;;13.95;53.56
77171;BME280;66144;50.020;14.422;2023-02-22T14:30:30;98683.47;;;13.86;54.60
77171;BME280;66144;50.020;14.422;2023-02-22T14:32:58;98678.97;;;13.97;54.72
77171;BME280;66144;50.020;14.422;2023-02-22T14:35:27;98677.66;;;13.99;55.20
77171;BME280;66144;50.020;14.422;2023-02-22T14:37:57;98688.25;;;13.79;55.70
77171;BME280;66144;50.020;14.422;2023-02-22T14:40:29;98677.78;;;13.69;55.73
77171;BME280;66144;50.020;14.422;2023-02-22T14:43:15;98680.69;;;13.62;55.93
77171;BME280;66144;50.020;14.422;2023-02-22T14:46:03;98679.59;;;13.68;55.53
77171;BME280;66144;50.020;14.422;2023-02-22T14:48:34;98676.50;;;13.56;55.77
77171;BME280;66144;50.020;14.422;2023-02-22T14:51:22;98680.97;;;13.61;56.13
77171;BME280;66144;50.020;14.422;2023-02-22T14:56:34;98691.22;;;13.47;56.10
77171;BME280;66144;50.020;14.422;2023-02-22T14:59:20;98677.63;;;13.30;56.58
77171;BME280;66144;50.020;14.422;2023-02-22T15:01:48;98686.31;;;13.15;57.01
77171;BME280;66144;50.020;14.422;2023-02-22T15:04:18;98691.81;;;13.19;57.43
77171;BME280;66144;50.020;14.422;2023-02-22T15:06:44;98680.25;;;13.09;57.47
77171;BME280;66144;50.020;14.422;2023-02-22T15:09:19;98692.06;;;13.02;57.70